Time;durP1;ratioP1;P1;durP2;ratioP2;P2;SDS_P1;SDS_P2;PMS_P1;PMS_P2;Temp;Humidity;BMP_temperature;BMP_pressure;BME280_temperature;BME280_humidity;BME280_pressure;Samples;Min_cycle;Max_cycle;Signal;HPM_P1;HPM_P2
2023/03/22 00:01:20;;;;;;;18.87;9.60;;;10.70;99.90;;;;;;5031161;28;20456;-78
2023/03/22 00:03:50;;;;;;;14.23;9.20;;;10.60;99.90;;;;;;5011689;28;20465;-78
2023/03/22 00:06:18;;;;;;;12.90;10.73;;;10.50;99.90;;;;;;5012262;28;20519;-78
2023/03/22 00:08:50;;;;;;;15.07;9.83;;;10.50;99.90;;;;;;5029527;28;20858;-78
2023/03/22 00:11:21;;;;;;;13.80;8.20;;;10.40;99.90;;;;;;5031252;28;20452;-78
2023/03/22 00:13:51;;;;;;;14.07;10.20;;;10.50;99.90;;;;;;5031474;28;20463;-78
2023/03/22 00:16:19;;;;;;;13.57;10.47;;;10.50;99.90;;;;;;5029958;28;20452;-78
2023/03/22 00:18:47;;;;;;;16.40;11.17;;;10.50;99.90;;;;;;5031828;28;20859;-78
2023/03/22 00:21:16;;;;;;;14.13;10.47;;;10.50;99.90;;;;;;5030970;28;20537;-78
2023/03/22 00:23:44;;;;;;;13.53;11.40;;;10.40;99.90;;;;;;5031410;28;20475;-78
2023/03/22 00:26:16;;;;;;;15.83;11.97;;;10.40;99.90;;;;;;5030797;28;20487;-78
2023/03/22 00:28:43;;;;;;;13.37;11.90;;;10.30;99.90;;;;;;5031505;28;20988;-78
2023/03/22 00:31:18;;;;;;;19.30;13.73;;;10.20;99.90;;;;;;5030163;28;20835;-78
2023/03/22 00:33:45;;;;;;;15.13;13.53;;;10.20;99.90;;;;;;5031314;28;20465;-78
2023/03/22 00:36:20;;;;;;;20.00;17.93;;;10.10;99.90;;;;;;5031058;28;20452;-78
2023/03/22 00:38:49;;;;;;;25.33;23.33;;;9.90;99.90;;;;;;5031117;28;21020;-78
2023/03/22 00:41:21;;;;;;;36.80;34.53;;;9.90;99.90;;;;;;5030746;28;20460;-78
2023/03/22 00:43:49;;;;;;;58.87;55.93;;;9.60;99.90;;;;;;5011513;28;20471;-78
2023/03/22 00:46:19;;;;;;;67.60;63.87;;;9.40;99.90;;;;;;5030339;28;20472;-78
2023/03/22 00:48:46;;;;;;;75.17;71.30;;;9.40;99.90;;;;;;5032250;28;20481;-78
2023/03/22 00:51:15;;;;;;;86.00;81.70;;;9.40;99.90;;;;;;5015906;28;20449;-78
2023/03/22 00:53:42;;;;;;;122.43;116.23;;;9.30;99.90;;;;;;5015636;28;20464;-78
2023/03/22 00:56:12;;;;;;;141.30;135.03;;;9.10;99.90;;;;;;5032031;28;20470;-78
2023/03/22 00:58:43;;;;;;;152.03;144.83;;;8.90;99.90;;;;;;5034871;28;20491;-79
2023/03/22 01:01:13;;;;;;;173.43;165.70;;;8.90;99.90;;;;;;5034585;28;20484;-78
2023/03/22 01:03:40;;;;;;;206.97;198.00;;;8.80;99.90;;;;;;5034349;28;20456;-78
2023/03/22 01:06:09;;;;;;;235.10;223.53;;;8.60;99.90;;;;;;5034331;28;20449;-78
2023/03/22 01:08:37;;;;;;;237.53;226.00;;;8.60;99.90;;;;;;5034022;28;20480;-78
2023/03/22 01:11:07;;;;;;;262.87;250.47;;;8.60;99.90;;;;;;5017021;28;20452;-78
2023/03/22 01:13:36;;;;;;;223.83;213.93;;;8.60;99.90;;;;;;5016809;28;20452;-78
2023/03/22 01:16:05;;;;;;;298.77;284.40;;;8.40;99.90;;;;;;5034328;28;20526;-78
2023/03/22 01:18:32;;;;;;;295.70;282.10;;;8.30;99.90;;;;;;5034138;28;20506;-78
2023/03/22 01:20:59;;;;;;;276.83;264.10;;;8.50;99.90;;;;;;5034462;28;20452;-78
2023/03/22 01:23:26;;;;;;;316.33;300.83;;;8.50;99.90;;;;;;5016504;28;20989;-78
2023/03/22 01:25:53;;;;;;;305.27;290.63;;;8.40;99.90;;;;;;5034338;28;20453;-78
2023/03/22 01:28:20;;;;;;;279.03;265.83;;;8.50;99.90;;;;;;5027101;28;20476;-78
2023/03/22 01:30:47;;;;;;;312.63;296.67;;;8.60;99.90;;;;;;5034000;28;20466;-78
2023/03/22 01:33:16;;;;;;;254.40;242.33;;;8.60;99.90;;;;;;5020130;28;20805;-78
2023/03/22 01:35:43;;;;;;;226.77;216.13;;;8.60;99.90;;;;;;5034421;28;20463;-78
2023/03/22 01:38:11;;;;;;;224.17;214.20;;;8.50;99.90;;;;;;5033971;28;20468;-78
2023/03/22 01:40:39;;;;;;;246.53;234.97;;;8.40;99.90;;;;;;5034180;28;20458;-78
2023/03/22 01:43:13;;;;;;;299.00;285.40;;;8.40;99.90;;;;;;5033386;28;20458;-78
2023/03/22 01:45:42;;;;;;;307.80;293.63;;;8.40;99.90;;;;;;5034291;28;20507;-78
2023/03/22 01:48:14;;;;;;;303.90;289.80;;;8.40;99.90;;;;;;5033231;28;20475;-78
2023/03/22 01:50:48;;;;;;;301.07;286.90;;;8.40;99.90;;;;;;5034095;28;20518;-78
2023/03/22 01:53:22;;;;;;;311.83;297.33;;;8.40;99.90;;;;;;5033454;28;20480;-78
2023/03/22 01:55:49;;;;;;;334.07;318.67;;;8.30;99.90;;;;;;5034303;28;20459;-78
2023/03/22 01:58:17;;;;;;;322.97;307.47;;;8.30;99.90;;;;;;5033485;28;20467;-78
2023/03/22 02:00:45;;;;;;;277.43;264.23;;;8.40;99.90;;;;;;5032719;28;20539;-78
2023/03/22 02:03:15;;;;;;;237.07;226.80;;;8.50;99.90;;;;;;5033277;28;20479;-78
2023/03/22 02:05:44;;;;;;;227.13;217.13;;;8.40;99.90;;;;;;5032026;28;20510;-78
2023/03/22 02:08:13;;;;;;;267.10;255.10;;;8.20;99.90;;;;;;5033015;28;20482;-78
2023/03/22 02:10:42;;;;;;;306.20;292.23;;;8.00;99.90;;;;;;5015767;28;20461;-78
2023/03/22 02:13:41;;;;;;;352.63;335.93;;;7.90;99.90;;;;;;5032288;28;20972;-78
2023/03/22 02:16:25;;;;;;;414.40;393.90;;;7.60;99.90;;;;;;5000442;28;20547;-78
2023/03/22 02:19:16;;;;;;;490.87;465.23;;;7.60;99.90;;;;;;5043670;28;20471;-78
2023/03/22 02:22:20;;;;;;;532.73;503.87;;;7.40;99.90;;;;;;5033092;28;20535;-78
2023/03/22 02:25:29;;;;;;;589.43;558.03;;;7.30;99.90;;;;;;5032611;28;20569;-78
2023/03/22 02:28:23;;;;;;;640.50;603.87;;;7.20;99.90;;;;;;4963337;28;20484;-78
2023/03/22 02:31:23;;;;;;;667.33;628.47;;;7.10;99.90;;;;;;5012702;28;20461;-78
2023/03/22 02:34:33;;;;;;;704.97;661.40;;;7.00;99.90;;;;;;5032833;28;21025;-78
2023/03/22 02:37:24;;;;;;;733.23;686.80;;;7.10;99.90;;;;;;5031648;28;20456;-78
2023/03/22 02:39:55;;;;;;;749.90;700.60;;;7.00;99.90;;;;;;5010940;28;20831;-78
2023/03/22 02:42:37;;;;;;;757.80;705.10;;;6.90;99.90;;;;;;5013963;28;20457;-78
2023/03/22 02:45:10;;;;;;;761.03;707.50;;;7.00;99.90;;;;;;5029691;28;20456;-78
2023/03/22 02:47:42;;;;;;;757.97;702.33;;;7.10;99.90;;;;;;5032761;28;20484;-78
2023/03/22 02:50:18;;;;;;;750.93;694.90;;;7.20;99.90;;;;;;5032296;28;20539;-79
2023/03/22 02:52:50;;;;;;;734.23;678.87;;;7.30;99.90;;;;;;5032276;28;20452;-78
2023/03/22 02:55:24;;;;;;;731.37;676.03;;;7.40;99.90;;;;;;5032475;28;20475;-78
2023/03/22 02:57:55;;;;;;;715.87;662.37;;;7.50;99.90;;;;;;5032417;28;20468;-78
2023/03/22 03:00:26;;;;;;;722.87;669.73;;;7.40;99.90;;;;;;5031655;28;20455;-78
2023/03/22 03:03:00;;;;;;;727.97;674.30;;;7.30;99.90;;;;;;5032502;28;20463;-78
2023/03/22 03:05:30;;;;;;;738.77;683.10;;;7.20;99.90;;;;;;5032120;28;20503;-78
2023/03/22 03:08:02;;;;;;;757.60;698.03;;;7.20;99.90;;;;;;5032377;28;20563;-78
2023/03/22 03:10:31;;;;;;;744.47;684.43;;;7.40;99.90;;;;;;5029026;28;20452;-78
2023/03/22 03:13:01;;;;;;;720.80;664.87;;;7.70;99.90;;;;;;5031038;28;21010;-78
2023/03/22 03:15:28;;;;;;;688.73;639.57;;;7.90;99.90;;;;;;5025063;28;20968;-78
2023/03/22 03:18:10;;;;;;;669.27;621.20;;;8.10;99.90;;;;;;5031955;28;20483;-78
2023/03/22 03:23:27;;;;;;;657.77;614.80;;;8.20;99.90;;;;;;5106021;22;20487;-78
2023/03/22 03:26:02;;;;;;;665.80;623.07;;;8.10;99.90;;;;;;5034238;28;20459;-78
2023/03/22 03:29:04;;;;;;;648.87;609.97;;;8.10;99.90;;;;;;5051382;28;20492;-78
2023/03/22 03:31:40;;;;;;;633.73;595.97;;;8.20;99.90;;;;;;5051629;28;20447;-78
2023/03/22 03:34:17;;;;;;;580.70;548.40;;;8.20;99.90;;;;;;5052130;28;20457;-78
2023/03/22 03:36:58;;;;;;;591.53;559.33;;;8.20;99.90;;;;;;5051627;28;20538;-78
2023/03/22 03:39:51;;;;;;;590.27;556.67;;;8.20;99.90;;;;;;5051720;28;20467;-78
2023/03/22 03:42:23;;;;;;;607.40;574.20;;;8.00;99.90;;;;;;5048776;28;20447;-78
2023/03/22 03:44:50;;;;;;;640.07;604.27;;;7.90;99.90;;;;;;5051475;28;20455;-78
2023/03/22 03:47:18;;;;;;;671.97;631.87;;;7.80;99.90;;;;;;5051429;28;20467;-78
2023/03/22 03:49:45;;;;;;;694.27;651.97;;;7.60;99.90;;;;;;5051234;28;20517;-78
2023/03/22 03:52:12;;;;;;;696.67;653.47;;;7.50;99.90;;;;;;5033664;28;20486;-78
2023/03/22 03:54:39;;;;;;;712.20;667.57;;;7.40;99.90;;;;;;5049701;28;20468;-78
2023/03/22 03:57:10;;;;;;;722.43;675.80;;;7.30;99.90;;;;;;5028286;28;20452;-77
2023/03/22 03:59:39;;;;;;;725.23;678.00;;;7.40;99.90;;;;;;5048540;28;20482;-78
2023/03/22 04:02:06;;;;;;;738.77;688.80;;;7.30;99.90;;;;;;5051021;28;20448;-78
2023/03/22 04:04:33;;;;;;;729.20;678.50;;;7.20;99.90;;;;;;5034021;28;20462;-78
2023/03/22 04:07:03;;;;;;;721.47;671.27;;;7.40;99.90;;;;;;5049290;28;20447;-78
2023/03/22 04:09:32;;;;;;;707.87;659.10;;;7.50;99.90;;;;;;5031592;28;20473;-77
2023/03/22 04:11:59;;;;;;;648.40;608.03;;;7.60;99.90;;;;;;5043891;28;20475;-78
2023/03/22 04:14:27;;;;;;;573.80;540.13;;;7.80;99.90;;;;;;5033790;22;20504;-81
2023/03/22 04:16:55;;;;;;;494.33;468.63;;;8.10;99.90;;;;;;5011248;28;20968;-81
2023/03/22 04:19:23;;;;;;;414.07;394.47;;;8.30;99.90;;;;;;5011055;28;20556;-81
2023/03/22 04:21:51;;;;;;;348.80;333.20;;;8.50;99.90;;;;;;4990697;28;20456;-81
2023/03/22 04:24:19;;;;;;;289.20;276.10;;;8.50;99.90;;;;;;5032825;28;20850;-81
2023/03/22 04:26:46;;;;;;;243.30;232.40;;;8.60;99.90;;;;;;4998871;28;20845;-81
2023/03/22 04:29:14;;;;;;;222.40;212.20;;;8.70;99.90;;;;;;4994675;28;20544;-82
2023/03/22 04:31:41;;;;;;;225.57;214.90;;;8.70;99.90;;;;;;5013781;28;20544;-82
2023/03/22 04:34:09;;;;;;;222.00;211.90;;;8.70;99.90;;;;;;5014604;28;20457;-82
2023/03/22 04:36:38;;;;;;;218.47;208.03;;;8.70;99.90;;;;;;5015420;28;20453;-81
2023/03/22 04:39:07;;;;;;;231.47;219.97;;;8.60;99.90;;;;;;4997623;28;20469;-79
2023/03/22 04:41:35;;;;;;;253.10;240.03;;;8.60;99.90;;;;;;5015645;28;21150;-82
2023/03/22 04:44:03;;;;;;;295.17;279.97;;;8.60;99.90;;;;;;5015786;28;20453;-82
2023/03/22 04:46:30;;;;;;;333.83;316.70;;;8.50;99.90;;;;;;5015322;28;20471;-81
2023/03/22 04:48:57;;;;;;;368.57;350.37;;;8.40;99.90;;;;;;5015518;28;20863;-81
2023/03/22 04:51:27;;;;;;;394.33;374.97;;;8.30;99.90;;;;;;4997576;28;20453;-74
2023/03/22 04:53:54;;;;;;;434.43;412.03;;;8.20;99.90;;;;;;5014341;28;20444;-75
2023/03/22 04:56:24;;;;;;;439.77;417.53;;;8.20;99.90;;;;;;5015435;28;20468;-81
2023/03/22 04:58:51;;;;;;;426.40;401.73;;;8.20;99.90;;;;;;5014909;28;20468;-82
2023/03/22 05:01:18;;;;;;;383.97;364.07;;;8.20;99.90;;;;;;5015144;28;20449;-82
2023/03/22 05:03:53;;;;;;;377.17;357.67;;;8.20;99.90;;;;;;5014369;28;20560;-81
2023/03/22 05:06:20;;;;;;;409.03;388.47;;;8.10;99.90;;;;;;5015406;28;20511;-81
2023/03/22 05:08:55;;;;;;;436.80;414.60;;;8.00;99.90;;;;;;5013402;28;20485;-81
2023/03/22 05:11:23;;;;;;;461.77;438.50;;;8.00;99.90;;;;;;4995241;28;20460;-81
2023/03/22 05:13:50;;;;;;;482.07;457.17;;;7.90;99.90;;;;;;5001165;28;20456;-81
2023/03/22 05:16:16;;;;;;;495.97;469.87;;;7.90;99.90;;;;;;5035120;28;20456;-81
2023/03/22 05:18:44;;;;;;;473.70;447.97;;;8.00;99.90;;;;;;5034873;28;20476;-81
2023/03/22 05:21:16;;;;;;;436.47;412.53;;;8.20;99.90;;;;;;5029914;28;20460;-82
2023/03/22 05:23:45;;;;;;;404.53;382.43;;;8.20;99.90;;;;;;5013534;28;20453;-76
2023/03/22 05:26:19;;;;;;;383.23;362.03;;;8.40;99.90;;;;;;5014138;28;20821;-81
2023/03/22 05:28:54;;;;;;;342.33;323.30;;;8.50;99.90;;;;;;5014345;28;20551;-81
2023/03/22 05:31:21;;;;;;;331.23;312.80;;;8.60;99.90;;;;;;5014098;28;20453;-81
2023/03/22 05:33:55;;;;;;;303.00;284.90;;;8.70;99.90;;;;;;5014434;28;20827;-81
2023/03/22 05:36:35;;;;;;;294.27;276.83;;;8.80;99.90;;;;;;5014585;28;20538;-81
2023/03/22 05:39:06;;;;;;;273.73;257.70;;;8.80;99.90;;;;;;5012960;28;20499;-81
2023/03/22 05:41:34;;;;;;;257.30;241.70;;;8.90;99.90;;;;;;5014360;28;20527;-81
2023/03/22 05:44:01;;;;;;;258.23;243.60;;;8.90;99.90;;;;;;5014464;28;20453;-81
2023/03/22 05:46:28;;;;;;;256.43;241.47;;;8.90;99.90;;;;;;5014510;28;20449;-81
2023/03/22 05:48:55;;;;;;;251.10;236.80;;;8.80;99.90;;;;;;5014087;28;20487;-81
2023/03/22 05:51:31;;;;;;;246.13;232.30;;;8.90;99.90;;;;;;5014335;28;20449;-81
2023/03/22 05:53:58;;;;;;;245.87;232.37;;;8.90;99.90;;;;;;5004024;28;20449;-81
2023/03/22 05:56:25;;;;;;;244.17;230.87;;;8.90;99.90;;;;;;5013578;28;20957;-82
2023/03/22 05:58:54;;;;;;;243.63;230.70;;;8.90;99.90;;;;;;5012817;28;20875;-81
2023/03/22 06:01:21;;;;;;;240.50;227.90;;;9.00;99.90;;;;;;5013385;28;20463;-81
2023/03/22 06:03:49;;;;;;;235.10;222.50;;;9.00;99.90;;;;;;5014006;28;20973;-81
2023/03/22 06:06:17;;;;;;;234.97;222.07;;;9.00;99.90;;;;;;5013807;28;20461;-81
2023/03/22 06:08:45;;;;;;;230.13;217.83;;;9.00;99.90;;;;;;5013210;28;20512;-81
2023/03/22 06:11:12;;;;;;;222.43;209.87;;;9.10;99.90;;;;;;5013394;28;20825;-82
2023/03/22 06:13:40;;;;;;;220.90;209.30;;;9.10;99.90;;;;;;5012675;28;20508;-82
2023/03/22 06:16:09;;;;;;;218.83;207.20;;;9.10;99.90;;;;;;5013188;28;20461;-82
2023/03/22 06:18:36;;;;;;;214.23;203.03;;;9.20;99.90;;;;;;4995737;28;20480;-82
2023/03/22 06:21:11;;;;;;;221.57;209.27;;;9.20;99.90;;;;;;5010780;28;20481;-82
2023/03/22 06:23:38;;;;;;;203.97;193.10;;;9.30;99.90;;;;;;5012775;28;20470;-82
2023/03/22 06:26:05;;;;;;;193.47;183.47;;;9.40;99.90;;;;;;5033308;28;20452;-82
2023/03/22 06:28:32;;;;;;;191.10;181.20;;;9.50;99.90;;;;;;5000249;28;20501;-82
2023/03/22 06:31:06;;;;;;;189.43;179.23;;;9.50;99.90;;;;;;5012622;28;20836;-82
2023/03/22 06:33:36;;;;;;;178.53;169.00;;;9.60;99.90;;;;;;4996026;28;21012;-81
2023/03/22 06:36:05;;;;;;;165.50;157.20;;;9.70;99.90;;;;;;5013388;28;20453;-82
2023/03/22 06:38:32;;;;;;;141.07;134.87;;;9.90;99.90;;;;;;5012817;28;20472;-82
2023/03/22 06:40:59;;;;;;;114.87;110.00;;;10.10;99.90;;;;;;5012200;28;20992;-82
2023/03/22 06:43:26;;;;;;;80.30;76.63;;;10.30;99.90;;;;;;5013056;28;20453;-82
2023/03/22 06:45:53;;;;;;;61.03;57.77;;;10.50;99.90;;;;;;5012948;28;20460;-82
2023/03/22 06:48:20;;;;;;;50.27;47.17;;;10.50;99.90;;;;;;5000577;28;20985;-82
2023/03/22 06:50:52;;;;;;;37.53;34.67;;;10.50;99.90;;;;;;5027246;28;20452;-82
2023/03/22 06:53:21;;;;;;;31.10;28.70;;;10.60;99.90;;;;;;5016708;28;20503;-82
2023/03/22 06:55:48;;;;;;;19.00;17.70;;;10.70;99.90;;;;;;5011334;28;20453;-81
2023/03/22 06:58:16;;;;;;;16.13;14.73;;;10.80;99.90;;;;;;5012415;28;20465;-82
2023/03/22 07:00:44;;;;;;;12.60;11.33;;;10.90;99.90;;;;;;5013025;28;20453;-82
2023/03/22 07:03:12;;;;;;;12.33;10.60;;;11.00;99.90;;;;;;5012979;28;20445;-81
2023/03/22 07:05:39;;;;;;;12.33;9.90;;;11.00;99.90;;;;;;5013580;28;20481;-82
2023/03/22 07:08:09;;;;;;;12.63;7.63;;;11.10;99.90;;;;;;5011847;28;20477;-81
2023/03/22 07:10:36;;;;;;;11.40;7.90;;;11.20;99.90;;;;;;5012179;28;20449;-81
2023/03/22 07:13:03;;;;;;;8.70;7.63;;;11.30;99.90;;;;;;5012618;28;20449;-81
2023/03/22 07:15:49;;;;;;;8.80;5.50;;;11.50;99.90;;;;;;4994474;28;20465;-82
2023/03/22 07:18:18;;;;;;;14.33;5.70;;;11.60;99.90;;;;;;5009760;28;21007;-81
2023/03/22 07:20:47;;;;;;;13.23;6.53;;;11.80;99.90;;;;;;4995056;28;20507;-82
2023/03/22 07:23:17;;;;;;;11.47;5.30;;;11.90;99.90;;;;;;4994282;28;20516;-82
2023/03/22 07:25:45;;;;;;;11.77;5.40;;;12.00;99.90;;;;;;5012577;28;20445;-82
2023/03/22 07:28:12;;;;;;;7.07;3.70;;;12.20;99.90;;;;;;5012536;28;20828;-82
2023/03/22 07:30:40;;;;;;;16.07;5.00;;;12.20;99.90;;;;;;4994584;28;20466;-82
2023/03/22 07:33:11;;;;;;;10.50;3.67;;;12.30;99.90;;;;;;4994422;28;20507;-82
2023/03/22 07:35:40;;;;;;;7.70;4.27;;;12.30;99.90;;;;;;5010696;28;20548;-82
2023/03/22 07:38:08;;;;;;;9.10;3.10;;;12.30;99.90;;;;;;5011314;28;20504;-82
2023/03/22 07:40:36;;;;;;;8.50;2.97;;;12.20;99.90;;;;;;5012256;28;20460;-82
2023/03/22 07:43:04;;;;;;;8.50;2.90;;;12.10;99.90;;;;;;5011216;28;20580;-82
2023/03/22 07:45:31;;;;;;;10.37;3.00;;;12.00;99.90;;;;;;5012374;28;20456;-82
2023/03/22 07:47:59;;;;;;;5.43;2.13;;;12.10;99.90;;;;;;5011957;28;20472;-82
2023/03/22 07:50:26;;;;;;;7.70;2.07;;;12.20;99.90;;;;;;4975975;28;20454;-83
2023/03/22 07:52:54;;;;;;;5.30;2.40;;;12.30;99.90;;;;;;5011724;28;20453;-81
2023/03/22 07:55:24;;;;;;;6.13;2.20;;;12.40;99.90;;;;;;5013213;28;20512;-82
2023/03/22 07:57:53;;;;;;;6.90;2.20;;;12.70;99.90;;;;;;5011058;28;20548;-81
2023/03/22 08:00:21;;;;;;;6.57;2.10;;;12.90;99.90;;;;;;5010851;28;20461;-82
2023/03/22 08:02:50;;;;;;;6.40;2.50;;;13.10;99.90;;;;;;4992525;28;20458;-82
2023/03/22 08:05:17;;;;;;;8.30;2.00;;;13.20;99.90;;;;;;5003873;28;20453;-82
2023/03/22 08:07:44;;;;;;;11.07;2.53;;;13.30;99.90;;;;;;5009571;28;20476;-82
2023/03/22 08:10:14;;;;;;;5.77;1.80;;;13.40;99.90;;;;;;5010373;28;20479;-85
2023/03/22 08:12:43;;;;;;;5.53;1.80;;;13.40;99.90;;;;;;4993191;28;20449;-82
2023/03/22 08:15:13;;;;;;;10.13;2.33;;;13.40;99.90;;;;;;5010201;28;20922;-82
2023/03/22 08:17:41;;;;;;;8.00;2.10;;;13.60;99.90;;;;;;5028599;28;20547;-82
2023/03/22 08:20:11;;;;;;;10.67;2.53;;;13.50;99.90;;;;;;5008447;28;20453;-82
2023/03/22 08:22:38;;;;;;;8.80;2.30;;;13.60;99.90;;;;;;5011030;28;20457;-81
2023/03/22 08:25:06;;;;;;;9.13;1.70;;;13.60;99.90;;;;;;4998111;28;20872;-87
2023/03/22 08:27:34;;;;;;;9.17;1.47;;;13.60;99.70;;;;;;5018356;28;20877;-82
2023/03/22 08:30:01;;;;;;;6.63;1.73;;;13.70;99.20;;;;;;5010852;28;20571;-81
2023/03/22 08:32:30;;;;;;;7.60;1.90;;;13.60;98.40;;;;;;5010054;28;20459;-82
2023/03/22 08:34:57;;;;;;;8.30;3.00;;;13.50;98.20;;;;;;5010804;28;20191;-82
2023/03/22 08:37:24;;;;;;;7.17;1.50;;;13.40;97.90;;;;;;5011799;28;21151;-83
2023/03/22 08:39:51;;;;;;;10.37;2.10;;;13.40;97.80;;;;;;5011053;28;20592;-82
2023/03/22 08:42:18;;;;;;;8.00;1.67;;;13.10;98.70;;;;;;5011304;28;20463;-82
2023/03/22 08:44:46;;;;;;;6.33;1.73;;;13.10;99.50;;;;;;5011211;28;20468;-83
2023/03/22 08:47:14;;;;;;;7.73;1.60;;;12.90;98.80;;;;;;5011651;28;20641;-82
2023/03/22 08:49:42;;;;;;;8.70;1.73;;;13.10;99.60;;;;;;4993939;28;20513;-82
2023/03/22 08:52:10;;;;;;;6.13;1.67;;;12.90;99.40;;;;;;5011210;28;20514;-82
2023/03/22 08:54:37;;;;;;;8.80;1.73;;;13.00;99.90;;;;;;5011516;28;20460;-82
2023/03/22 08:57:08;;;;;;;5.80;1.57;;;13.00;99.70;;;;;;4994062;28;20463;-82
2023/03/22 08:59:35;;;;;;;6.50;1.80;;;13.20;99.70;;;;;;5011412;28;20511;-83
2023/03/22 09:02:03;;;;;;;4.93;1.33;;;13.60;98.50;;;;;;5010057;28;20467;-82
2023/03/22 09:04:30;;;;;;;4.37;1.43;;;13.90;97.50;;;;;;5011547;28;20480;-82
2023/03/22 09:06:58;;;;;;;9.30;1.43;;;14.30;97.50;;;;;;4993911;28;20459;-82
2023/03/22 09:09:25;;;;;;;11.27;2.80;;;14.10;94.40;;;;;;4994237;28;20477;-83
2023/03/22 09:11:52;;;;;;;7.77;1.50;;;14.40;95.20;;;;;;5014675;28;20457;-82
2023/03/22 09:14:20;;;;;;;6.93;1.37;;;15.00;95.60;;;;;;5014724;28;20845;-83
2023/03/22 09:16:47;;;;;;;11.70;1.77;;;15.00;93.00;;;;;;5015233;28;20455;-82
2023/03/22 09:19:14;;;;;;;6.70;2.53;;;15.10;92.60;;;;;;5015068;28;20483;-82
2023/03/22 09:21:41;;;;;;;8.77;3.00;;;15.20;90.30;;;;;;5014691;28;20464;-83
2023/03/22 09:24:10;;;;;;;9.43;1.57;;;15.30;89.50;;;;;;5014926;28;20967;-83
2023/03/22 09:26:37;;;;;;;5.83;1.73;;;15.50;90.70;;;;;;5014832;28;20459;-83
2023/03/22 09:29:04;;;;;;;6.67;2.07;;;15.50;87.80;;;;;;5014710;28;20571;-83
2023/03/22 09:31:31;;;;;;;7.53;1.73;;;15.60;88.30;;;;;;5014404;28;21037;-82
2023/03/22 09:33:58;;;;;;;7.00;1.77;;;15.60;89.80;;;;;;5014834;28;20923;-83
2023/03/22 09:36:25;;;;;;;11.23;1.77;;;15.20;87.90;;;;;;5014768;28;20464;-82
2023/03/22 09:38:52;;;;;;;5.60;2.30;;;15.10;88.30;;;;;;4997268;28;20858;-83
2023/03/22 09:41:26;;;;;;;10.53;2.33;;;14.90;86.90;;;;;;5014188;28;20459;-82
2023/03/22 09:43:56;;;;;;;12.53;2.80;;;14.70;89.30;;;;;;5014338;28;20496;-82
2023/03/22 09:46:30;;;;;;;10.80;4.63;;;14.50;88.20;;;;;;5014772;28;20816;-82
2023/03/22 09:48:58;;;;;;;11.20;2.83;;;14.40;88.70;;;;;;5014351;28;20530;-82
2023/03/22 09:51:39;;;;;;;13.53;3.67;;;14.40;90.30;;;;;;5014079;28;20467;-82
2023/03/22 09:54:13;;;;;;;7.57;1.73;;;14.80;90.20;;;;;;5014463;28;20463;-82
2023/03/22 09:56:45;;;;;;;9.50;2.80;;;15.10;90.40;;;;;;5014439;28;20521;-82
2023/03/22 09:59:19;;;;;;;11.93;4.53;;;15.10;87.70;;;;;;5014293;28;20486;-83
2023/03/22 10:01:51;;;;;;;7.70;3.40;;;15.30;89.50;;;;;;4996635;28;20487;-82
2023/03/22 10:04:44;;;;;;;13.83;2.47;;;15.60;89.80;;;;;;5014073;28;20515;-83
2023/03/22 10:07:20;;;;;;;12.57;2.70;;;15.80;86.20;;;;;;4996339;28;20460;-82
2023/03/22 10:09:58;;;;;;;12.80;3.27;;;16.20;83.30;;;;;;4994646;28;20526;-85
2023/03/22 10:12:30;;;;;;;7.67;2.63;;;16.70;83.10;;;;;;4995637;28;20535;-85
2023/03/22 10:15:05;;;;;;;6.83;1.70;;;16.90;83.20;;;;;;5042023;22;20875;-82
2023/03/22 10:17:35;;;;;;;7.70;1.70;;;17.40;81.10;;;;;;5051839;28;20542;-83
2023/03/22 10:20:08;;;;;;;6.77;1.60;;;17.40;78.60;;;;;;5052395;28;20454;-82
2023/03/22 10:22:41;;;;;;;7.23;1.30;;;17.30;77.80;;;;;;5050464;28;20957;-83
2023/03/22 10:25:15;;;;;;;6.00;1.70;;;16.90;77.20;;;;;;5053469;28;20455;-82
2023/03/22 10:27:44;;;;;;;7.50;1.47;;;16.90;79.80;;;;;;5052365;28;20474;-82
2023/03/22 10:30:20;;;;;;;6.60;1.60;;;16.70;78.70;;;;;;5035332;28;20524;-83
2023/03/22 10:32:53;;;;;;;8.57;2.83;;;16.40;77.80;;;;;;5052607;28;20453;-82
2023/03/22 10:35:20;;;;;;;6.13;1.37;;;16.20;75.70;;;;;;5035347;28;20896;-83
2023/03/22 10:37:51;;;;;;;6.23;1.97;;;16.10;79.90;;;;;;5034942;28;20472;-82
2023/03/22 10:40:21;;;;;;;8.00;1.67;;;15.80;78.30;;;;;;5052541;28;20475;-83
2023/03/22 10:42:55;;;;;;;14.10;3.00;;;15.80;80.50;;;;;;5052753;28;20458;-82
2023/03/22 10:45:24;;;;;;;10.80;2.40;;;15.60;78.60;;;;;;5052930;28;20455;-83
2023/03/22 10:47:58;;;;;;;7.27;1.70;;;15.80;79.90;;;;;;5034883;28;20471;-82
2023/03/22 10:50:30;;;;;;;9.07;2.93;;;15.70;80.60;;;;;;5052509;28;20477;-82
2023/03/22 10:53:02;;;;;;;7.43;2.07;;;15.50;79.40;;;;;;5052475;28;20462;-83
2023/03/22 10:55:30;;;;;;;7.03;2.70;;;15.50;79.20;;;;;;5052655;28;20454;-82
2023/03/22 10:58:10;;;;;;;5.37;1.73;;;15.40;81.90;;;;;;5052428;28;21022;-82
2023/03/22 11:00:41;;;;;;;7.63;2.17;;;15.40;81.90;;;;;;5034570;28;20532;-83
2023/03/22 11:03:08;;;;;;;12.30;2.10;;;15.40;81.90;;;;;;5052425;28;20463;-83
2023/03/22 11:05:34;;;;;;;8.33;1.83;;;15.20;81.70;;;;;;5052279;28;20456;-82
2023/03/22 11:08:03;;;;;;;6.53;1.70;;;15.20;81.70;;;;;;5052525;28;20485;-82
2023/03/22 11:10:32;;;;;;;5.10;1.47;;;15.00;82.10;;;;;;5033847;28;20473;-82
2023/03/22 11:13:20;;;;;;;10.70;3.70;;;14.90;81.40;;;;;;5051897;28;20669;-82
2023/03/22 11:15:54;;;;;;;10.20;1.80;;;15.10;83.20;;;;;;5051736;28;20493;-83
2023/03/22 11:18:21;;;;;;;9.60;3.07;;;15.10;81.60;;;;;;5051924;28;20472;-82
2023/03/22 11:20:58;;;;;;;11.20;3.60;;;15.00;81.60;;;;;;5046577;28;20454;-83
2023/03/22 11:23:29;;;;;;;10.33;2.97;;;15.00;81.60;;;;;;5046943;28;20453;-83
2023/03/22 11:25:59;;;;;;;4.70;1.70;;;15.10;81.60;;;;;;5051408;28;20528;-83
2023/03/22 11:28:35;;;;;;;6.67;1.90;;;15.10;84.00;;;;;;5051498;28;20477;-82
2023/03/22 11:31:08;;;;;;;7.60;2.17;;;14.80;81.30;;;;;;5052447;28;20522;-82
2023/03/22 11:33:36;;;;;;;10.30;3.37;;;14.70;81.20;;;;;;5051467;28;20463;-83
2023/03/22 11:36:15;;;;;;;8.87;2.70;;;14.60;81.20;;;;;;5052348;28;20945;-83
2023/03/22 11:38:43;;;;;;;9.07;1.60;;;14.50;81.10;;;;;;5033504;28;20838;-83
2023/03/22 11:41:20;;;;;;;5.70;1.77;;;14.40;81.00;;;;;;5034179;28;20448;-83
2023/03/22 11:43:53;;;;;;;5.30;2.10;;;14.60;81.10;;;;;;5033529;28;20561;-83
2023/03/22 11:46:20;;;;;;;4.43;1.23;;;14.70;81.20;;;;;;5034415;28;20459;-83
2023/03/22 11:48:50;;;;;;;8.03;2.83;;;14.60;81.10;;;;;;5051539;28;20478;-82
2023/03/22 11:51:25;;;;;;;7.27;2.07;;;14.80;81.30;;;;;;5050718;28;20468;-83
2023/03/22 11:53:56;;;;;;;4.77;1.60;;;14.90;79.40;;;;;;5051672;28;20452;-82
2023/03/22 11:56:29;;;;;;;9.73;1.83;;;15.00;79.10;;;;;;5033811;28;20467;-83
2023/03/22 11:59:02;;;;;;;6.53;1.30;;;15.10;78.70;;;;;;5051261;28;20980;-83
2023/03/22 12:01:43;;;;;;;8.10;2.53;;;15.10;78.90;;;;;;5051251;28;20526;-84
2023/03/22 12:04:17;;;;;;;6.47;1.90;;;15.20;77.20;;;;;;5051445;28;20449;-83
2023/03/22 12:06:45;;;;;;;5.60;1.50;;;15.20;76.70;;;;;;5051715;28;20555;-83
2023/03/22 12:09:23;;;;;;;7.50;1.70;;;15.10;77.30;;;;;;5033362;28;20925;-83
2023/03/22 12:11:53;;;;;;;5.93;1.33;;;15.10;77.40;;;;;;5051196;28;20444;-83
2023/03/22 12:14:26;;;;;;;7.03;1.90;;;15.00;79.80;;;;;;5051048;28;20955;-83
2023/03/22 12:16:56;;;;;;;7.57;1.30;;;14.90;80.40;;;;;;5051477;28;20459;-83
2023/03/22 12:19:38;;;;;;;6.83;1.47;;;14.80;81.40;;;;;;5050870;28;20478;-82
2023/03/22 12:22:13;;;;;;;5.80;1.50;;;14.70;80.20;;;;;;5051149;28;20496;-83
2023/03/22 12:24:40;;;;;;;5.60;1.30;;;14.70;81.20;;;;;;5033270;28;20885;-83
2023/03/22 12:27:18;;;;;;;5.50;1.43;;;14.50;81.10;;;;;;5051387;28;20972;-83
2023/03/22 12:29:53;;;;;;;7.40;1.60;;;14.50;83.70;;;;;;5051150;28;20466;-83
2023/03/22 12:32:25;;;;;;;5.93;1.67;;;14.40;84.50;;;;;;5051072;28;20970;-83
2023/03/22 12:34:55;;;;;;;6.10;1.50;;;14.40;83.10;;;;;;5050698;28;20460;-82
2023/03/22 12:37:27;;;;;;;11.10;1.60;;;14.30;84.70;;;;;;5051497;28;20880;-82
2023/03/22 12:39:58;;;;;;;7.40;1.20;;;14.20;87.20;;;;;;5051861;28;20475;-83
2023/03/22 12:42:31;;;;;;;10.77;1.40;;;14.30;89.40;;;;;;5047203;28;20455;-83
2023/03/22 12:45:04;;;;;;;8.37;1.57;;;14.10;87.00;;;;;;5052705;28;20542;-83
2023/03/22 12:47:40;;;;;;;4.93;1.37;;;14.00;90.00;;;;;;5037309;28;20458;-83
2023/03/22 12:50:13;;;;;;;4.90;1.40;;;13.80;91.20;;;;;;5054969;28;20893;-83
2023/03/22 12:52:45;;;;;;;8.37;1.80;;;13.60;92.20;;;;;;5055037;28;20458;-83